createdAt,value
2022-12-31T00:55:04.616Z,44.37
2022-12-31T00:56:04.501Z,43.29
2022-12-31T00:57:04.481Z,42.75
2022-12-31T00:58:04.365Z,43.09
2022-12-31T00:59:04.297Z,43.72
2022-12-31T01:00:04.376Z,44.10
2022-12-31T01:01:04.387Z,44.17
2022-12-31T01:02:12.984Z,44.24
2022-12-31T01:03:04.147Z,44.44
2022-12-31T01:04:03.896Z,44.54
2022-12-31T01:05:03.799Z,44.58
2022-12-31T01:06:03.734Z,44.54
2022-12-31T01:07:03.608Z,44.56
2022-12-31T01:08:03.553Z,44.51
2022-12-31T01:09:03.456Z,44.44
2022-12-31T01:10:03.341Z,44.53
2022-12-31T01:11:03.243Z,44.52
2022-12-31T01:12:03.172Z,44.60
2022-12-31T01:13:03.052Z,44.55
2022-12-31T01:14:02.986Z,44.61
2022-12-31T01:15:02.893Z,44.64
2022-12-31T01:16:02.862Z,44.62
2022-12-31T01:17:02.696Z,44.70
2022-12-31T01:18:02.671Z,44.71
2022-12-31T01:19:02.513Z,44.73
2022-12-31T01:20:02.454Z,44.73
2022-12-31T01:21:02.335Z,44.77
2022-12-31T01:22:02.286Z,44.78
2022-12-31T01:23:02.142Z,44.80
2022-12-31T01:24:02.092Z,44.79
2022-12-31T01:25:01.992Z,44.78
2022-12-31T01:26:01.884Z,44.81
2022-12-31T01:27:01.781Z,44.85
2022-12-31T01:28:01.713Z,44.83
2022-12-31T01:29:01.640Z,44.90
2022-12-31T01:30:01.513Z,44.87
2022-12-31T01:31:01.453Z,44.92
2022-12-31T01:32:01.357Z,44.91
2022-12-31T01:33:01.231Z,44.95
2022-12-31T01:34:01.179Z,44.92
2022-12-31T01:35:01.067Z,44.96
2022-12-31T01:36:01.265Z,44.95
2022-12-31T01:37:00.898Z,44.96
2022-12-31T01:38:00.847Z,44.99
2022-12-31T01:39:00.752Z,45.04
2022-12-31T01:40:00.653Z,45.00
2022-12-31T01:41:00.534Z,45.00
2022-12-31T01:42:00.494Z,45.04
2022-12-31T01:43:00.355Z,45.02
2022-12-31T01:44:00.299Z,45.06
2022-12-31T01:45:00.228Z,45.06
2022-12-31T01:46:00.198Z,45.08
2022-12-31T01:47:00.040Z,45.08
2022-12-31T01:47:59.931Z,45.07
2022-12-31T01:48:59.820Z,45.13
2022-12-31T01:49:59.757Z,45.11
2022-12-31T01:50:59.643Z,45.08
2022-12-31T01:51:59.538Z,45.12
2022-12-31T01:52:59.460Z,45.15
2022-12-31T01:53:59.388Z,45.20
2022-12-31T01:54:59.279Z,45.16
2022-12-31T01:55:59.211Z,45.19
2022-12-31T01:56:59.093Z,45.19
2022-12-31T01:57:59.027Z,45.10
2022-12-31T01:58:58.922Z,45.22
2022-12-31T01:59:58.812Z,45.18
2022-12-31T02:00:58.754Z,45.24
2022-12-31T02:01:58.948Z,45.21
2022-12-31T02:02:58.624Z,45.23
2022-12-31T02:03:58.476Z,45.21
2022-12-31T02:04:58.372Z,45.26
2022-12-31T02:05:58.279Z,45.19
2022-12-31T02:06:58.157Z,45.23
2022-12-31T02:07:58.088Z,45.21
2022-12-31T02:08:57.986Z,45.26
2022-12-31T02:09:57.892Z,45.28
2022-12-31T02:10:57.794Z,45.23
2022-12-31T02:11:57.707Z,45.24
2022-12-31T02:12:57.624Z,45.25
2022-12-31T02:13:58.755Z,45.22
2022-12-31T02:14:57.435Z,45.25
2022-12-31T02:15:57.384Z,45.31
2022-12-31T02:16:57.231Z,45.31
2022-12-31T02:17:57.152Z,45.27
2022-12-31T02:18:57.042Z,45.32
2022-12-31T02:19:57.009Z,45.29
2022-12-31T02:20:56.900Z,45.31
2022-12-31T02:21:56.801Z,45.29
2022-12-31T02:22:56.699Z,45.29
2022-12-31T02:23:56.629Z,45.31
2022-12-31T02:24:56.521Z,45.29
2022-12-31T02:25:56.420Z,45.27
2022-12-31T02:26:56.341Z,45.29
2022-12-31T02:27:56.267Z,45.34
2022-12-31T02:28:56.161Z,45.35
2022-12-31T02:29:56.092Z,45.32
2022-12-31T02:30:56.005Z,45.33
2022-12-31T02:31:55.901Z,45.32
2022-12-31T02:32:55.796Z,45.34
2022-12-31T02:33:55.724Z,45.34
2022-12-31T02:34:55.624Z,45.35
2022-12-31T02:35:55.532Z,45.33
2022-12-31T02:36:55.426Z,45.38
2022-12-31T02:37:55.389Z,45.32
2022-12-31T02:38:55.275Z,45.30
2022-12-31T02:39:55.184Z,45.35
2022-12-31T02:40:55.067Z,45.37
2022-12-31T02:41:55.019Z,45.35
2022-12-31T02:42:55.696Z,45.39
2022-12-31T02:43:54.831Z,45.34
2022-12-31T02:44:54.716Z,45.34
2022-12-31T02:45:54.677Z,45.35
2022-12-31T02:46:54.602Z,45.37
2022-12-31T02:47:54.463Z,45.40
2022-12-31T02:48:54.376Z,45.40
2022-12-31T02:49:54.300Z,45.43
2022-12-31T02:50:54.228Z,45.40
2022-12-31T02:51:54.145Z,45.40
2022-12-31T02:52:54.022Z,45.47
2022-12-31T02:53:53.950Z,45.42
2022-12-31T02:54:53.867Z,45.42
2022-12-31T02:55:53.770Z,45.42
2022-12-31T02:56:53.687Z,45.43
2022-12-31T02:57:53.627Z,45.44
2022-12-31T02:58:53.531Z,45.45
2022-12-31T02:59:53.451Z,45.47
2022-12-31T03:00:53.407Z,45.49
2022-12-31T03:01:53.340Z,45.47
2022-12-31T03:02:53.227Z,45.45
2022-12-31T03:03:53.100Z,45.45
2022-12-31T03:04:52.993Z,45.47
2022-12-31T03:05:52.939Z,45.45
2022-12-31T03:06:52.833Z,45.46
2022-12-31T03:07:52.734Z,45.49
2022-12-31T03:08:52.615Z,45.48
2022-12-31T03:09:52.590Z,45.48
2022-12-31T03:10:52.460Z,45.44
2022-12-31T03:11:52.391Z,45.45
2022-12-31T03:12:52.296Z,45.55
2022-12-31T03:13:52.265Z,45.53
2022-12-31T03:14:52.145Z,45.49
2022-12-31T03:15:52.147Z,45.46
2022-12-31T03:16:51.954Z,45.54
2022-12-31T03:17:51.899Z,45.54
2022-12-31T03:18:51.773Z,45.50
2022-12-31T03:19:51.722Z,45.51
2022-12-31T03:20:51.624Z,45.54
2022-12-31T03:21:51.566Z,45.50
2022-12-31T03:22:51.437Z,45.51
2022-12-31T03:23:51.397Z,45.50
2022-12-31T03:24:51.268Z,45.46
2022-12-31T03:25:51.227Z,45.54
2022-12-31T03:26:51.126Z,45.54
2022-12-31T03:27:51.077Z,45.50
2022-12-31T03:28:50.970Z,45.56
2022-12-31T03:29:50.902Z,45.52
2022-12-31T03:30:50.801Z,45.60
2022-12-31T03:31:50.760Z,45.59
2022-12-31T03:32:50.590Z,45.54
2022-12-31T03:33:50.584Z,45.55
2022-12-31T03:34:50.436Z,45.54
2022-12-31T03:35:50.372Z,45.56
2022-12-31T03:36:50.255Z,45.51
2022-12-31T03:37:50.234Z,45.61
2022-12-31T03:38:52.840Z,45.56
2022-12-31T03:39:50.042Z,45.54
2022-12-31T03:40:49.919Z,45.56
2022-12-31T03:41:49.879Z,45.61
2022-12-31T03:42:49.747Z,45.57
2022-12-31T03:43:49.729Z,45.64
2022-12-31T03:44:49.613Z,45.61
2022-12-31T03:45:49.569Z,45.58
2022-12-31T03:46:49.401Z,45.57
2022-12-31T03:47:49.382Z,45.55
2022-12-31T03:48:49.258Z,45.56
2022-12-31T03:49:49.209Z,45.56
2022-12-31T03:50:49.081Z,45.56
2022-12-31T03:51:49.054Z,45.61
2022-12-31T03:52:48.915Z,45.63
2022-12-31T03:53:48.866Z,45.58
2022-12-31T03:54:48.737Z,45.54
2022-12-31T03:55:48.696Z,45.56
2022-12-31T03:56:49.594Z,45.61
2022-12-31T03:57:48.528Z,45.54
2022-12-31T03:58:48.407Z,45.62
2022-12-31T03:59:48.383Z,45.59
2022-12-31T04:00:48.333Z,45.56
2022-12-31T04:01:48.259Z,45.58
2022-12-31T04:02:48.082Z,45.58
2022-12-31T04:03:48.044Z,45.61
2022-12-31T04:04:47.931Z,45.64
2022-12-31T04:05:47.863Z,45.63
2022-12-31T04:06:47.746Z,45.57
2022-12-31T04:07:47.697Z,45.58
2022-12-31T04:08:47.595Z,45.56
2022-12-31T04:09:47.528Z,45.61
2022-12-31T04:10:47.393Z,45.59
2022-12-31T04:11:47.345Z,45.62
2022-12-31T04:12:47.242Z,45.59
2022-12-31T04:13:47.202Z,45.63
2022-12-31T04:14:47.118Z,45.67
2022-12-31T04:15:47.048Z,45.63
2022-12-31T04:16:46.939Z,45.63
2022-12-31T04:17:46.874Z,45.61
2022-12-31T04:18:46.789Z,45.64
2022-12-31T04:19:46.707Z,45.64
2022-12-31T04:20:46.587Z,45.62
2022-12-31T04:21:46.595Z,45.64
2022-12-31T04:22:46.480Z,45.64
2022-12-31T04:23:46.352Z,45.59
2022-12-31T04:24:46.246Z,45.65
2022-12-31T04:25:46.222Z,45.61
2022-12-31T04:26:46.085Z,45.61
2022-12-31T04:27:46.026Z,45.66
2022-12-31T04:28:45.904Z,45.68
2022-12-31T04:29:45.848Z,45.58
2022-12-31T04:30:45.725Z,45.64
2022-12-31T04:31:45.724Z,45.66
2022-12-31T04:32:45.555Z,45.68
2022-12-31T04:33:45.516Z,45.65
2022-12-31T04:34:45.422Z,45.64
2022-12-31T04:35:45.340Z,45.64
2022-12-31T04:36:45.220Z,45.65
2022-12-31T04:37:45.165Z,45.69
2022-12-31T04:38:45.065Z,45.64
2022-12-31T04:39:45.007Z,45.66
2022-12-31T04:40:44.861Z,45.65
2022-12-31T04:41:44.857Z,45.70
2022-12-31T04:42:44.750Z,45.73
2022-12-31T04:43:44.693Z,45.64
2022-12-31T04:44:44.578Z,45.67
2022-12-31T04:45:44.507Z,45.69
2022-12-31T04:46:44.384Z,45.69
2022-12-31T04:47:44.332Z,45.70
2022-12-31T04:48:44.249Z,45.65
2022-12-31T04:49:44.168Z,45.66
2022-12-31T04:50:44.036Z,45.69
2022-12-31T04:51:44.044Z,45.67
2022-12-31T04:52:43.949Z,45.66
2022-12-31T04:53:43.826Z,45.74
2022-12-31T04:54:43.711Z,45.72
2022-12-31T04:55:43.673Z,45.71
2022-12-31T04:56:43.561Z,45.69
2022-12-31T04:57:43.470Z,45.70
2022-12-31T04:58:43.371Z,45.70
2022-12-31T04:59:43.316Z,45.71
2022-12-31T05:00:43.214Z,45.72
2022-12-31T05:01:43.222Z,45.72
2022-12-31T05:02:43.196Z,45.71
2022-12-31T05:03:42.971Z,45.70
2022-12-31T05:04:42.856Z,45.72
2022-12-31T05:05:42.831Z,45.76
2022-12-31T05:06:42.693Z,45.79
2022-12-31T05:07:42.638Z,45.72
2022-12-31T05:08:42.528Z,45.72
2022-12-31T05:09:42.468Z,45.71
2022-12-31T05:10:42.364Z,45.71
2022-12-31T05:11:42.306Z,45.74
2022-12-31T05:12:42.231Z,45.73
2022-12-31T05:13:42.131Z,45.72
2022-12-31T05:14:42.011Z,45.72
2022-12-31T05:15:41.959Z,45.76
2022-12-31T05:16:41.841Z,45.76
2022-12-31T05:17:41.844Z,45.75
2022-12-31T05:18:41.681Z,45.74
2022-12-31T05:19:41.674Z,45.71
2022-12-31T05:20:41.532Z,45.69
2022-12-31T05:21:41.460Z,45.72
2022-12-31T05:22:41.340Z,45.75
2022-12-31T05:23:41.312Z,45.80
2022-12-31T05:24:41.172Z,45.70
2022-12-31T05:25:41.141Z,45.77
2022-12-31T05:26:41.017Z,45.76
2022-12-31T05:27:40.969Z,45.77
2022-12-31T05:28:40.847Z,45.78
2022-12-31T05:29:40.792Z,45.76
2022-12-31T05:30:40.682Z,45.75
2022-12-31T05:31:40.625Z,45.82
2022-12-31T05:32:40.545Z,45.79
2022-12-31T05:33:40.454Z,45.76
2022-12-31T05:34:40.324Z,45.80
2022-12-31T05:35:40.278Z,45.77
2022-12-31T05:36:40.132Z,45.77
2022-12-31T05:37:40.137Z,45.81
2022-12-31T05:38:39.986Z,45.77
2022-12-31T05:39:39.920Z,45.79
2022-12-31T05:40:39.832Z,45.81
2022-12-31T05:41:39.785Z,45.82
2022-12-31T05:42:39.649Z,45.80
2022-12-31T05:43:39.563Z,45.83
2022-12-31T05:44:39.460Z,45.77
2022-12-31T05:45:39.410Z,45.79
2022-12-31T05:46:39.314Z,45.76
2022-12-31T05:47:39.269Z,45.76
2022-12-31T05:48:39.159Z,45.74
2022-12-31T05:49:39.103Z,45.78
2022-12-31T05:50:38.977Z,45.74
2022-12-31T05:51:38.950Z,45.78
2022-12-31T05:52:38.910Z,45.72
2022-12-31T05:53:38.776Z,45.77
2022-12-31T05:54:38.648Z,45.78
2022-12-31T05:55:38.623Z,45.72
2022-12-31T05:56:38.488Z,45.78
2022-12-31T05:57:38.431Z,45.79
2022-12-31T05:58:38.331Z,45.78
2022-12-31T05:59:38.311Z,45.78
2022-12-31T06:00:38.165Z,45.76
2022-12-31T06:01:38.150Z,45.83
2022-12-31T06:02:38.088Z,45.78
2022-12-31T06:03:37.994Z,45.77
2022-12-31T06:04:37.854Z,45.77
2022-12-31T06:05:37.771Z,45.79
2022-12-31T06:06:37.666Z,45.78
2022-12-31T06:07:37.670Z,45.82
2022-12-31T06:08:37.511Z,45.80
2022-12-31T06:09:37.498Z,45.78
2022-12-31T06:10:37.365Z,45.78
2022-12-31T06:11:37.337Z,45.78
2022-12-31T06:12:37.225Z,45.76
2022-12-31T06:13:37.176Z,45.78
2022-12-31T06:14:42.203Z,45.85
2022-12-31T06:15:38.063Z,45.79
2022-12-31T06:16:36.907Z,45.84
2022-12-31T06:17:36.867Z,45.81
2022-12-31T06:18:36.729Z,45.79
2022-12-31T06:19:36.721Z,45.80
2022-12-31T06:20:36.575Z,45.84
2022-12-31T06:21:36.551Z,45.82
2022-12-31T06:22:36.423Z,45.83
2022-12-31T06:23:36.393Z,45.82
2022-12-31T06:24:36.275Z,45.81
2022-12-31T06:25:36.266Z,45.81
2022-12-31T06:26:36.133Z,45.83
2022-12-31T06:27:36.052Z,45.83
2022-12-31T06:28:35.926Z,45.83
2022-12-31T06:29:35.902Z,45.84
2022-12-31T06:30:35.806Z,45.83
2022-12-31T06:31:35.747Z,45.83
2022-12-31T06:32:35.610Z,45.84
2022-12-31T06:33:35.572Z,45.93
2022-12-31T06:34:35.475Z,45.95
2022-12-31T06:35:35.416Z,45.92
2022-12-31T06:36:35.298Z,45.97
2022-12-31T06:37:35.287Z,45.94
2022-12-31T06:38:35.166Z,45.87
2022-12-31T06:39:35.099Z,45.78
2022-12-31T06:40:35.000Z,45.73
2022-12-31T06:41:34.924Z,45.63
2022-12-31T06:42:34.829Z,45.52
2022-12-31T06:43:34.749Z,45.49
2022-12-31T06:44:34.659Z,45.42
2022-12-31T06:45:34.605Z,45.44
2022-12-31T06:46:34.540Z,45.50
2022-12-31T06:47:34.428Z,45.38
2022-12-31T06:48:34.310Z,45.27
2022-12-31T06:49:34.269Z,45.32
2022-12-31T06:50:34.119Z,45.27
2022-12-31T06:51:34.089Z,45.18
2022-12-31T06:52:33.973Z,45.15
2022-12-31T06:53:33.898Z,45.14
2022-12-31T06:54:33.789Z,45.06
2022-12-31T06:55:33.708Z,45.01
2022-12-31T06:56:35.018Z,45.01
2022-12-31T06:57:33.516Z,44.90
2022-12-31T06:58:33.393Z,44.85
2022-12-31T06:59:33.352Z,44.84
2022-12-31T07:00:33.222Z,44.74
2022-12-31T07:01:33.239Z,44.66
2022-12-31T07:02:40.150Z,44.62
2022-12-31T07:03:32.945Z,44.53
2022-12-31T07:04:32.883Z,44.41
2022-12-31T07:05:32.782Z,44.42
2022-12-31T07:06:32.716Z,44.30
2022-12-31T07:07:32.595Z,44.29
2022-12-31T07:08:32.506Z,44.25
2022-12-31T07:09:32.411Z,44.23
2022-12-31T07:10:32.337Z,44.18
2022-12-31T07:11:32.231Z,44.17
2022-12-31T07:12:32.123Z,44.12
2022-12-31T07:13:32.042Z,44.10
2022-12-31T07:14:31.950Z,44.15
2022-12-31T07:15:31.817Z,44.07
2022-12-31T07:16:31.771Z,44.03
2022-12-31T07:17:31.624Z,44.06
2022-12-31T07:18:31.509Z,44.06
2022-12-31T07:19:31.399Z,44.07
2022-12-31T07:20:31.323Z,44.07
2022-12-31T07:21:31.185Z,44.07
2022-12-31T07:22:31.124Z,44.09
2022-12-31T07:23:30.972Z,44.11
2022-12-31T07:24:30.926Z,44.05
2022-12-31T07:25:30.800Z,44.12
2022-12-31T07:26:30.711Z,44.07
2022-12-31T07:27:30.579Z,44.11
2022-12-31T07:28:30.519Z,44.08
2022-12-31T07:29:30.381Z,44.13
2022-12-31T07:30:30.304Z,44.12
2022-12-31T07:31:30.215Z,44.13
2022-12-31T07:32:30.120Z,44.11
2022-12-31T07:33:29.972Z,44.20
2022-12-31T07:34:29.913Z,44.19
2022-12-31T07:35:34.799Z,44.19
2022-12-31T07:36:30.764Z,44.20
2022-12-31T07:37:29.607Z,44.24
2022-12-31T07:38:29.562Z,44.26
2022-12-31T07:39:29.421Z,44.27
2022-12-31T07:40:29.364Z,44.22
2022-12-31T07:41:29.246Z,44.31
2022-12-31T07:42:29.181Z,44.34
2022-12-31T07:43:29.050Z,44.34
2022-12-31T07:44:29.007Z,44.36
2022-12-31T07:45:28.867Z,44.37
2022-12-31T07:46:28.818Z,44.42
2022-12-31T07:47:28.693Z,44.39
2022-12-31T07:48:28.642Z,44.44
2022-12-31T07:49:28.500Z,44.42
2022-12-31T07:50:28.415Z,44.47
2022-12-31T07:51:28.321Z,44.51
2022-12-31T07:52:28.267Z,44.46
2022-12-31T07:53:28.099Z,44.43
2022-12-31T07:54:28.059Z,44.41
2022-12-31T07:55:27.914Z,44.38
2022-12-31T07:56:27.836Z,44.37
2022-12-31T07:57:27.719Z,44.38
2022-12-31T07:58:27.658Z,44.36
2022-12-31T07:59:27.507Z,44.31
2022-12-31T08:00:27.449Z,44.34
2022-12-31T08:01:27.387Z,44.32
2022-12-31T08:02:27.336Z,44.31
2022-12-31T08:03:27.106Z,44.32
2022-12-31T08:04:27.047Z,44.28
2022-12-31T08:05:26.936Z,44.27
2022-12-31T08:06:26.881Z,44.27
2022-12-31T08:07:26.691Z,44.23
2022-12-31T08:08:26.645Z,44.20
2022-12-31T08:09:26.505Z,44.24
2022-12-31T08:10:26.549Z,44.19
2022-12-31T08:11:26.281Z,44.21
2022-12-31T08:12:26.207Z,44.15
2022-12-31T08:13:26.101Z,44.15
2022-12-31T08:14:26.038Z,44.16
2022-12-31T08:15:30.337Z,44.16
2022-12-31T08:16:25.945Z,44.12
2022-12-31T08:17:25.696Z,44.15
2022-12-31T08:18:25.639Z,44.08
2022-12-31T08:19:25.478Z,44.12
2022-12-31T08:20:25.441Z,44.14
2022-12-31T08:21:29.533Z,44.12
2022-12-31T08:22:26.216Z,44.08
2022-12-31T08:23:25.052Z,44.10
2022-12-31T08:24:25.018Z,44.16
2022-12-31T08:25:24.848Z,44.15
2022-12-31T08:26:24.833Z,44.16
2022-12-31T08:27:24.694Z,44.11
2022-12-31T08:28:24.610Z,44.15
2022-12-31T08:29:24.509Z,44.16
2022-12-31T08:30:24.432Z,44.26
2022-12-31T08:31:24.315Z,44.23
2022-12-31T08:32:24.234Z,44.18
2022-12-31T08:33:24.105Z,44.22
2022-12-31T08:34:24.056Z,44.22
2022-12-31T08:35:23.912Z,44.27
2022-12-31T08:36:23.872Z,44.28
2022-12-31T08:37:23.710Z,44.28
2022-12-31T08:38:23.649Z,44.24
2022-12-31T08:39:23.548Z,44.21
2022-12-31T08:40:23.497Z,44.26
2022-12-31T08:41:23.342Z,44.30
2022-12-31T08:42:23.261Z,44.30
2022-12-31T08:43:23.147Z,44.27
2022-12-31T08:44:23.091Z,44.29
2022-12-31T08:45:22.939Z,44.28
2022-12-31T08:46:22.897Z,44.30
2022-12-31T08:47:22.756Z,44.31
2022-12-31T08:48:22.715Z,44.38
2022-12-31T08:49:22.541Z,44.29
2022-12-31T08:50:22.513Z,44.35
2022-12-31T08:51:22.358Z,44.34
2022-12-31T08:52:22.329Z,44.42
2022-12-31T08:53:22.164Z,44.38
2022-12-31T08:54:22.088Z,44.34
2022-12-31T08:55:21.999Z,44.43
2022-12-31T08:56:21.930Z,44.38
2022-12-31T08:57:21.808Z,44.44
2022-12-31T08:58:21.761Z,44.45
2022-12-31T08:59:21.591Z,44.47
2022-12-31T09:00:21.571Z,44.45
2022-12-31T09:01:21.562Z,44.53
2022-12-31T09:02:21.389Z,44.58
2022-12-31T09:03:21.238Z,44.58
2022-12-31T09:04:21.201Z,44.68
2022-12-31T09:05:21.059Z,44.78
2022-12-31T09:06:21.005Z,44.76
2022-12-31T09:07:20.872Z,44.72
2022-12-31T09:08:20.832Z,44.70
2022-12-31T09:09:20.728Z,44.56
2022-12-31T09:10:20.652Z,44.57
2022-12-31T09:11:23.190Z,44.64
2022-12-31T09:12:20.456Z,44.67
2022-12-31T09:13:20.338Z,44.96
2022-12-31T09:14:20.304Z,44.78
2022-12-31T09:15:20.159Z,45.00
2022-12-31T09:16:20.132Z,44.87
2022-12-31T09:17:19.969Z,45.04
2022-12-31T09:18:19.896Z,45.02
2022-12-31T09:19:19.749Z,45.03
2022-12-31T09:20:19.713Z,45.09
2022-12-31T09:21:19.583Z,45.11
2022-12-31T09:22:19.527Z,45.05
2022-12-31T09:23:19.375Z,45.11
2022-12-31T09:24:19.311Z,45.23
2022-12-31T09:25:19.200Z,45.25
2022-12-31T09:26:19.156Z,45.21
2022-12-31T09:27:23.830Z,45.20
2022-12-31T09:28:19.947Z,45.16
2022-12-31T09:29:18.825Z,45.17
2022-12-31T09:30:18.773Z,45.29
2022-12-31T09:31:18.712Z,45.27
2022-12-31T09:32:18.579Z,45.36
2022-12-31T09:33:18.446Z,45.35
2022-12-31T09:34:18.389Z,45.25
2022-12-31T09:35:18.256Z,45.31
2022-12-31T09:36:18.224Z,45.33
2022-12-31T09:37:18.077Z,45.32
2022-12-31T09:38:18.030Z,45.38
2022-12-31T09:39:17.901Z,45.36
2022-12-31T09:40:17.825Z,45.35
2022-12-31T09:41:17.715Z,45.36
2022-12-31T09:42:17.628Z,45.31
2022-12-31T09:43:17.514Z,45.30
2022-12-31T09:44:17.479Z,45.26
2022-12-31T09:45:17.345Z,45.28
2022-12-31T09:46:17.301Z,45.23
2022-12-31T09:47:17.166Z,45.28
2022-12-31T09:48:17.111Z,45.25
2022-12-31T09:49:16.968Z,45.31
2022-12-31T09:50:16.904Z,45.28
2022-12-31T09:51:20.404Z,45.22
2022-12-31T09:52:17.751Z,45.26
2022-12-31T09:53:16.621Z,45.28
2022-12-31T09:54:16.563Z,45.29
2022-12-31T09:55:16.426Z,45.33
2022-12-31T09:56:16.387Z,45.33
2022-12-31T09:57:16.278Z,45.33
2022-12-31T09:58:16.191Z,45.37
2022-12-31T09:59:16.065Z,45.39
2022-12-31T10:00:15.991Z,45.40
2022-12-31T10:01:15.993Z,45.40
2022-12-31T10:02:15.977Z,45.42
2022-12-31T10:03:15.745Z,45.41
2022-12-31T10:04:15.617Z,45.43
2022-12-31T10:05:15.484Z,45.43
2022-12-31T10:06:15.408Z,45.51
2022-12-31T10:07:15.284Z,45.59
2022-12-31T10:08:15.205Z,45.52
2022-12-31T10:09:15.107Z,45.54
2022-12-31T10:10:15.047Z,45.56
2022-12-31T10:11:14.893Z,45.56
2022-12-31T10:12:14.865Z,45.59
2022-12-31T10:13:14.739Z,45.54
2022-12-31T10:14:14.663Z,45.56
2022-12-31T10:15:14.546Z,45.56
2022-12-31T10:16:14.456Z,45.57
2022-12-31T10:17:14.372Z,45.74
2022-12-31T10:18:14.288Z,45.64
2022-12-31T10:19:14.157Z,45.64
2022-12-31T10:20:14.104Z,45.61
2022-12-31T10:21:13.989Z,45.62
2022-12-31T10:22:13.909Z,45.59
2022-12-31T10:23:13.786Z,45.60
2022-12-31T10:24:13.704Z,45.66
2022-12-31T10:25:13.595Z,45.58
2022-12-31T10:26:13.546Z,45.59
2022-12-31T10:27:13.404Z,45.48
2022-12-31T10:28:13.348Z,45.46
2022-12-31T10:29:13.229Z,45.59
2022-12-31T10:30:13.209Z,45.48
2022-12-31T10:31:13.040Z,45.49
2022-12-31T10:32:12.951Z,45.48
2022-12-31T10:33:12.830Z,45.38
2022-12-31T10:34:12.768Z,45.45
2022-12-31T10:35:12.689Z,45.22
2022-12-31T10:36:12.621Z,45.27
2022-12-31T10:37:12.473Z,45.18
2022-12-31T10:38:12.434Z,45.24
2022-12-31T10:39:15.295Z,45.18
2022-12-31T10:40:12.246Z,45.06
2022-12-31T10:41:12.078Z,45.10
2022-12-31T10:42:12.033Z,45.06
2022-12-31T10:43:11.901Z,44.99
2022-12-31T10:44:11.852Z,44.93
2022-12-31T10:45:11.704Z,44.90
2022-12-31T10:46:11.702Z,44.86
2022-12-31T10:47:11.548Z,44.74
2022-12-31T10:48:11.439Z,44.73
2022-12-31T10:49:11.298Z,44.66
2022-12-31T10:50:11.251Z,44.59
2022-12-31T10:51:11.130Z,44.55
2022-12-31T10:52:11.054Z,44.51
2022-12-31T10:53:10.918Z,44.77
2022-12-31T10:54:10.861Z,44.66
2022-12-31T10:55:10.730Z,44.56
2022-12-31T10:56:10.652Z,44.51
2022-12-31T10:57:10.499Z,44.45
2022-12-31T10:58:10.454Z,44.42
2022-12-31T10:59:10.327Z,44.40
2022-12-31T11:00:10.291Z,44.41
2022-12-31T11:01:10.194Z,44.37
2022-12-31T11:02:10.207Z,44.29
2022-12-31T11:03:09.926Z,44.36
2022-12-31T11:04:09.839Z,44.29
2022-12-31T11:05:09.710Z,44.27
2022-12-31T11:06:09.638Z,44.25
2022-12-31T11:07:09.460Z,44.23
2022-12-31T11:08:09.407Z,44.27
2022-12-31T11:09:09.271Z,44.28
2022-12-31T11:10:09.220Z,44.26
2022-12-31T11:11:09.069Z,44.27
2022-12-31T11:12:09.009Z,44.26
2022-12-31T11:13:08.870Z,44.29
2022-12-31T11:14:08.827Z,44.27
2022-12-31T11:15:08.652Z,44.33
2022-12-31T11:16:08.674Z,44.30
2022-12-31T11:17:08.460Z,44.30
2022-12-31T11:18:08.411Z,44.29
2022-12-31T11:19:08.241Z,44.30
2022-12-31T11:20:08.174Z,44.29
2022-12-31T11:21:08.082Z,44.27
2022-12-31T11:22:08.008Z,44.26
2022-12-31T11:23:07.857Z,44.27
2022-12-31T11:24:07.809Z,44.35
2022-12-31T11:25:07.662Z,44.29
2022-12-31T11:26:07.616Z,44.33
2022-12-31T11:27:07.470Z,44.39
2022-12-31T11:28:07.382Z,44.36
2022-12-31T11:29:07.286Z,44.39
2022-12-31T11:30:07.210Z,44.39
2022-12-31T11:31:07.097Z,44.39
2022-12-31T11:32:06.991Z,44.48
2022-12-31T11:33:06.880Z,44.51
2022-12-31T11:34:06.807Z,44.48
2022-12-31T11:35:06.648Z,44.48
2022-12-31T11:36:06.572Z,44.56
2022-12-31T11:37:06.450Z,44.51
2022-12-31T11:38:06.348Z,44.53
2022-12-31T11:39:06.260Z,44.47
2022-12-31T11:40:06.155Z,44.45
2022-12-31T11:41:06.017Z,44.45
2022-12-31T11:42:05.953Z,44.40
2022-12-31T11:43:05.832Z,44.40
2022-12-31T11:44:05.737Z,44.37
2022-12-31T11:45:05.610Z,44.37
2022-12-31T11:46:05.542Z,44.35
2022-12-31T11:47:05.393Z,44.34
2022-12-31T11:48:29.553Z,44.32
2022-12-31T11:49:06.206Z,44.24
2022-12-31T11:50:05.055Z,44.28
2022-12-31T11:51:05.014Z,44.27
2022-12-31T11:52:04.876Z,44.24
2022-12-31T11:53:04.772Z,44.24
2022-12-31T11:54:04.658Z,44.25
2022-12-31T11:55:04.597Z,43.43
2022-12-31T11:56:04.439Z,41.20
2022-12-31T11:57:04.375Z,40.15
2022-12-31T11:58:04.248Z,39.14
2022-12-31T11:59:09.709Z,39.40
2022-12-31T12:00:05.122Z,39.10
2022-12-31T12:01:04.062Z,38.63
2022-12-31T12:02:03.935Z,38.56
2022-12-31T12:03:03.857Z,39.11
2022-12-31T12:04:03.796Z,37.76
2022-12-31T12:05:10.320Z,36.12
2022-12-31T12:06:04.605Z,37.17
2022-12-31T12:07:03.529Z,37.22
2022-12-31T12:08:03.467Z,36.82
2022-12-31T12:09:03.362Z,36.37
2022-12-31T12:10:03.290Z,35.86
2022-12-31T12:11:03.213Z,36.28
2022-12-31T12:12:03.167Z,36.39
2022-12-31T12:13:03.103Z,36.17
2022-12-31T12:14:03.051Z,37.19
2022-12-31T12:15:02.956Z,37.24
2022-12-31T12:16:02.976Z,37.72
2022-12-31T12:17:05.492Z,37.41
2022-12-31T12:18:02.786Z,37.85
2022-12-31T12:19:02.696Z,38.19
2022-12-31T12:20:02.669Z,37.59
2022-12-31T12:21:02.564Z,37.53
2022-12-31T12:22:02.526Z,37.84
2022-12-31T12:23:02.413Z,37.57
2022-12-31T12:24:02.360Z,37.64
2022-12-31T12:25:02.301Z,37.67
2022-12-31T12:26:02.264Z,37.80
2022-12-31T12:27:02.077Z,37.99
2022-12-31T12:28:02.005Z,38.24
2022-12-31T12:29:01.920Z,38.50
2022-12-31T12:30:01.857Z,38.44
2022-12-31T12:31:01.816Z,38.29
2022-12-31T12:32:01.668Z,38.33
2022-12-31T12:33:01.577Z,38.32
2022-12-31T12:34:01.529Z,38.61
2022-12-31T12:35:01.411Z,39.09
2022-12-31T12:36:01.347Z,39.44
2022-12-31T12:37:01.222Z,39.63
2022-12-31T12:38:01.157Z,39.33
2022-12-31T12:39:01.046Z,39.50
2022-12-31T12:40:01.155Z,39.57
2022-12-31T12:41:00.845Z,40.17
2022-12-31T12:42:00.765Z,39.96
2022-12-31T12:43:00.680Z,40.33
2022-12-31T12:44:00.599Z,40.60
2022-12-31T12:45:00.469Z,40.56
2022-12-31T12:46:00.421Z,41.24
2022-12-31T12:47:00.368Z,41.15
2022-12-31T12:48:00.351Z,41.76
2022-12-31T12:49:00.221Z,41.42
2022-12-31T12:50:00.126Z,41.70
2022-12-31T12:50:59.968Z,41.53
2022-12-31T12:51:59.845Z,41.69
2022-12-31T12:52:59.941Z,41.55
2022-12-31T12:53:59.667Z,42.20
2022-12-31T12:54:59.541Z,42.09
2022-12-31T12:55:59.486Z,42.12
2022-12-31T12:56:59.431Z,42.34
2022-12-31T12:57:59.277Z,42.33
2022-12-31T12:58:59.171Z,42.18
2022-12-31T12:59:59.066Z,42.30
2022-12-31T13:00:59.033Z,42.06
2022-12-31T13:01:59.018Z,42.24
2022-12-31T13:03:05.784Z,42.34
2022-12-31T13:04:59.700Z,42.18
2022-12-31T13:05:58.477Z,42.36
2022-12-31T13:06:58.384Z,42.27
2022-12-31T13:07:58.267Z,42.43
2022-12-31T13:08:58.224Z,42.48
2022-12-31T13:09:58.071Z,42.55
2022-12-31T13:10:58.021Z,42.67
2022-12-31T13:12:02.282Z,42.87
2022-12-31T13:13:23.444Z,43.05
2022-12-31T13:13:58.668Z,43.07
2022-12-31T13:14:57.631Z,43.07
2022-12-31T13:15:57.551Z,43.03
2022-12-31T13:16:57.381Z,43.18
2022-12-31T13:18:01.479Z,43.13
2022-12-31T13:18:57.220Z,43.06
2022-12-31T13:19:57.079Z,43.08
2022-12-31T13:20:56.999Z,43.07
2022-12-31T13:21:56.866Z,43.11
2022-12-31T13:22:56.813Z,43.11
2022-12-31T13:23:56.681Z,43.26
2022-12-31T13:24:56.631Z,43.26
2022-12-31T13:25:56.515Z,43.32
2022-12-31T13:26:56.473Z,43.23
2022-12-31T13:27:56.311Z,43.27
2022-12-31T13:28:56.242Z,43.24
2022-12-31T13:29:56.126Z,43.25
2022-12-31T13:30:58.343Z,43.29
2022-12-31T13:31:56.943Z,43.28
2022-12-31T13:32:55.844Z,43.30
2022-12-31T13:33:55.794Z,43.35
2022-12-31T13:34:55.703Z,43.40
2022-12-31T13:35:55.622Z,43.45
2022-12-31T13:36:55.507Z,43.45
2022-12-31T13:38:00.203Z,43.50
2022-12-31T13:38:56.333Z,43.65
2022-12-31T13:39:55.333Z,43.59
2022-12-31T13:40:55.108Z,43.60
2022-12-31T13:41:55.046Z,43.64
2022-12-31T13:42:54.945Z,43.78
2022-12-31T13:43:54.937Z,43.73
2022-12-31T13:44:54.764Z,43.95
2022-12-31T13:45:54.673Z,44.04
2022-12-31T13:46:54.539Z,43.98